Time;durP1;ratioP1;P1;durP2;ratioP2;P2;SDS_P1;SDS_P2;PMS_P1;PMS_P2;Temp;Humidity;BMP_temperature;BMP_pressure;BME280_temperature;BME280_humidity;BME280_pressure;Samples;Min_cycle;Max_cycle;Signal;HPM_P1;HPM_P2
2021/12/19 00:00:09;;;;;;;5.63;3.10;;;7.80;99.90;;;;;;5072437;28;20544;-61
2021/12/19 00:10:51;;;;;;;4.10;2.60;;;7.80;99.90;;;;;;5063701;28;20667;-61
2021/12/19 00:13:19;;;;;;;2.97;2.33;;;7.40;99.90;;;;;;5073140;28;20281;-62
2021/12/19 00:15:47;;;;;;;3.63;2.73;;;7.80;99.90;;;;;;5044652;28;20263;-61
2021/12/19 00:18:14;;;;;;;4.33;2.90;;;7.80;99.90;;;;;;5071766;28;20196;-61
2021/12/19 00:20:41;;;;;;;3.63;2.90;;;7.80;99.90;;;;;;5074291;28;20648;-61
2021/12/19 00:23:08;;;;;;;3.43;3.00;;;7.80;99.90;;;;;;5069723;28;20553;-60
2021/12/19 00:25:35;;;;;;;5.60;3.37;;;7.80;99.90;;;;;;5062226;28;20268;-60
2021/12/19 00:28:03;;;;;;;7.73;3.80;;;7.80;99.90;;;;;;5065310;28;20535;-60
2021/12/19 00:30:31;;;;;;;4.10;3.10;;;7.80;99.90;;;;;;5056324;28;20193;-61
2021/12/19 00:32:58;;;;;;;5.17;3.20;;;7.70;99.90;;;;;;5071810;28;20309;-61
2021/12/19 00:35:26;;;;;;;4.37;3.10;;;7.80;99.90;;;;;;5074387;28;20284;-61
2021/12/19 00:37:54;;;;;;;9.90;3.90;;;7.80;99.90;;;;;;5076843;28;20677;-61
2021/12/19 00:40:21;;;;;;;13.13;4.37;;;7.80;99.90;;;;;;5074674;28;20206;-62
2021/12/19 00:42:52;;;;;;;5.07;3.27;;;7.80;99.90;;;;;;5078551;28;20184;-61
2021/12/19 00:45:27;;;;;;;5.57;2.93;;;7.80;99.90;;;;;;5074792;28;20225;-61
2021/12/19 00:47:56;;;;;;;9.87;3.87;;;7.80;99.90;;;;;;5063724;28;20189;-62
2021/12/19 00:50:24;;;;;;;5.47;3.40;;;7.80;99.90;;;;;;5060842;28;20192;-62
2021/12/19 00:52:52;;;;;;;9.33;3.67;;;7.80;99.90;;;;;;5075486;28;20375;-61
2021/12/19 00:55:21;;;;;;;10.73;3.63;;;7.80;99.90;;;;;;5065001;28;20200;-60
2021/12/19 00:57:49;;;;;;;5.70;2.80;;;7.90;99.90;;;;;;5069121;28;20197;-61
2021/12/19 01:00:19;;;;;;;5.30;2.80;;;7.90;99.90;;;;;;5084859;27;20205;-62
2021/12/19 01:02:50;;;;;;;7.13;3.00;;;7.90;99.90;;;;;;5066788;28;20202;-63
2021/12/19 01:05:19;;;;;;;5.13;3.00;;;7.80;99.90;;;;;;5074134;28;20288;-62
2021/12/19 01:07:47;;;;;;;6.43;3.47;;;7.80;99.90;;;;;;5052386;28;20201;-62
2021/12/19 01:10:14;;;;;;;5.73;3.20;;;7.90;99.90;;;;;;5073355;28;20275;-62
2021/12/19 01:12:42;;;;;;;7.03;3.10;;;7.80;99.90;;;;;;5071562;28;20213;-62
2021/12/19 01:15:12;;;;;;;6.00;2.63;;;7.80;99.90;;;;;;5071173;28;20204;-62
2021/12/19 01:17:40;;;;;;;9.00;3.13;;;7.80;99.90;;;;;;5068240;28;20198;-62
2021/12/19 01:20:14;;;;;;;5.87;2.90;;;7.80;99.90;;;;;;5063705;28;20202;-62
2021/12/19 01:22:43;;;;;;;7.23;3.57;;;7.80;99.90;;;;;;5074810;28;20658;-62
2021/12/19 01:25:11;;;;;;;6.60;3.40;;;7.90;99.90;;;;;;5071461;28;20205;-62
2021/12/19 01:27:38;;;;;;;6.33;3.00;;;8.00;99.90;;;;;;5068336;28;20551;-62
2021/12/19 01:30:08;;;;;;;10.50;3.10;;;7.90;99.90;;;;;;5094988;27;20296;-62
2021/12/19 01:32:36;;;;;;;7.00;2.93;;;7.90;99.90;;;;;;5074340;28;20299;-63
2021/12/19 01:35:04;;;;;;;9.53;3.03;;;7.90;99.90;;;;;;5079499;28;20196;-62
2021/12/19 01:37:31;;;;;;;9.83;3.10;;;8.00;99.90;;;;;;5074504;28;20192;-62
2021/12/19 01:40:00;;;;;;;5.97;2.90;;;8.00;99.90;;;;;;5086346;28;20227;-62
2021/12/19 01:42:31;;;;;;;6.83;2.97;;;8.00;99.90;;;;;;5078133;28;20239;-62
2021/12/19 01:44:58;;;;;;;7.17;2.93;;;8.00;99.90;;;;;;5081261;28;20227;-62
2021/12/19 01:47:27;;;;;;;10.83;2.53;;;8.00;99.90;;;;;;5077682;28;20204;-62
2021/12/19 01:49:55;;;;;;;9.97;3.33;;;7.90;99.90;;;;;;5070924;28;20270;-63
2021/12/19 01:52:23;;;;;;;6.70;2.90;;;8.10;99.90;;;;;;5076201;28;20201;-63
2021/12/19 01:54:51;;;;;;;5.87;2.67;;;8.10;99.90;;;;;;5065339;28;20463;-62
2021/12/19 01:57:22;;;;;;;8.30;3.27;;;8.10;99.90;;;;;;5071802;28;20271;-62
2021/12/19 01:59:49;;;;;;;4.03;2.03;;;8.10;99.90;;;;;;5062062;28;20208;-62
2021/12/19 02:02:16;;;;;;;3.30;2.20;;;8.10;99.90;;;;;;5082679;28;20185;-62
2021/12/19 02:04:43;;;;;;;6.70;2.53;;;8.20;99.90;;;;;;5071517;28;20243;-63
2021/12/19 02:07:12;;;;;;;7.93;2.70;;;8.10;99.90;;;;;;5069760;28;20201;-63
2021/12/19 02:09:40;;;;;;;7.27;3.00;;;8.20;99.90;;;;;;5061937;28;20247;-63
2021/12/19 02:12:08;;;;;;;7.73;2.47;;;8.20;99.90;;;;;;5067992;28;20335;-60
2021/12/19 02:14:37;;;;;;;5.73;2.43;;;8.20;99.90;;;;;;5079679;28;20683;-61
2021/12/19 02:17:05;;;;;;;5.67;2.70;;;8.20;99.90;;;;;;5061498;28;20189;-62
2021/12/19 02:19:33;;;;;;;4.50;2.53;;;8.20;99.90;;;;;;5062352;28;20202;-62
2021/12/19 02:22:02;;;;;;;4.63;1.90;;;8.20;99.90;;;;;;5066129;28;20219;-62
2021/12/19 02:24:29;;;;;;;4.50;2.17;;;8.20;99.90;;;;;;5060439;28;20268;-63
2021/12/19 02:26:56;;;;;;;5.47;2.43;;;8.20;99.90;;;;;;5061243;28;20189;-63
2021/12/19 02:29:24;;;;;;;5.43;1.80;;;8.30;99.90;;;;;;5060846;28;20197;-63
2021/12/19 02:31:51;;;;;;;4.67;1.60;;;8.30;99.90;;;;;;5058099;28;20212;-62
2021/12/19 02:34:22;;;;;;;3.37;1.47;;;8.30;99.90;;;;;;5070126;28;20190;-63
2021/12/19 02:36:58;;;;;;;2.80;1.27;;;8.20;99.90;;;;;;5069493;28;20184;-61
2021/12/19 02:50:30;;;;;;;3.60;2.00;;;8.30;99.90;;;;;;5074053;28;20238;-61
2021/12/19 02:52:59;;;;;;;3.63;1.80;;;8.30;99.90;;;;;;5077808;28;20216;-61
2021/12/19 02:55:27;;;;;;;3.50;1.70;;;8.30;99.90;;;;;;5070718;28;20197;-62
2021/12/19 02:57:54;;;;;;;2.73;1.70;;;8.30;99.90;;;;;;5061403;28;20193;-61
2021/12/19 03:00:24;;;;;;;4.00;1.80;;;8.20;99.90;;;;;;5065514;28;20198;-61
2021/12/19 03:02:52;;;;;;;9.37;2.27;;;8.30;99.90;;;;;;5078000;28;20197;-61
2021/12/19 03:05:19;;;;;;;5.37;2.10;;;8.30;99.90;;;;;;5092283;28;20218;-62
2021/12/19 03:07:49;;;;;;;6.20;1.83;;;8.30;99.90;;;;;;5081969;28;20193;-62
2021/12/19 03:11:00;;;;;;;6.57;1.67;;;8.30;99.90;;;;;;5065374;28;20190;-62
2021/12/19 03:13:35;;;;;;;4.73;1.83;;;8.30;99.90;;;;;;5078378;28;20658;-62
2021/12/19 03:18:47;;;;;;;2.13;1.40;;;8.30;99.90;;;;;;5081428;28;20189;-62
2021/12/19 03:21:16;;;;;;;3.47;1.50;;;8.30;99.90;;;;;;5072968;28;20197;-61
2021/12/19 03:23:44;;;;;;;6.93;1.60;;;8.30;99.90;;;;;;5074708;28;20207;-61
2021/12/19 03:26:11;;;;;;;4.63;1.43;;;8.30;99.90;;;;;;5070601;28;20204;-61
2021/12/19 03:28:40;;;;;;;11.13;2.17;;;8.30;99.90;;;;;;5067889;28;20203;-61
2021/12/19 03:31:07;;;;;;;7.73;2.33;;;8.30;99.90;;;;;;5062627;28;20310;-61
2021/12/19 03:33:35;;;;;;;3.50;1.50;;;8.30;99.90;;;;;;5072684;28;20228;-61
2021/12/19 03:36:02;;;;;;;6.40;1.70;;;8.30;99.90;;;;;;5060136;28;20546;-61
2021/12/19 03:38:30;;;;;;;1.60;1.20;;;8.30;99.90;;;;;;5079406;28;20185;-61
2021/12/19 03:41:12;;;;;;;4.70;1.87;;;8.30;99.90;;;;;;5083727;28;20342;-63
2021/12/19 03:43:41;;;;;;;7.60;2.00;;;8.30;99.90;;;;;;5071497;28;20197;-61
2021/12/19 03:46:08;;;;;;;3.77;1.37;;;8.20;99.90;;;;;;5083136;28;20595;-61
2021/12/19 03:48:35;;;;;;;3.70;1.30;;;8.20;99.90;;;;;;5082781;28;20220;-61
2021/12/19 03:51:02;;;;;;;2.20;1.23;;;8.10;99.90;;;;;;5082836;28;20194;-61
2021/12/19 03:53:30;;;;;;;2.10;1.00;;;8.10;99.90;;;;;;5077910;28;20730;-62
2021/12/19 03:55:57;;;;;;;2.70;1.33;;;8.10;99.90;;;;;;5079957;28;20236;-62
2021/12/19 03:58:25;;;;;;;1.67;1.00;;;8.00;99.90;;;;;;5076487;28;20733;-62
2021/12/19 04:00:58;;;;;;;1.23;1.10;;;8.00;99.90;;;;;;5073864;28;20213;-61
2021/12/19 04:03:26;;;;;;;2.80;1.10;;;7.90;99.90;;;;;;5072594;28;20193;-62
2021/12/19 04:05:54;;;;;;;4.23;1.40;;;8.00;99.90;;;;;;5071663;28;20189;-62
2021/12/19 04:08:21;;;;;;;2.40;1.30;;;7.90;99.90;;;;;;5073466;28;20287;-60
2021/12/19 04:10:50;;;;;;;2.73;1.20;;;7.90;99.90;;;;;;5059595;28;20255;-61
2021/12/19 04:13:19;;;;;;;3.63;1.10;;;7.90;99.90;;;;;;5067765;28;20218;-61
2021/12/19 04:15:48;;;;;;;2.17;1.10;;;7.90;99.90;;;;;;5051219;28;20190;-61
2021/12/19 04:18:16;;;;;;;3.10;1.30;;;7.80;99.90;;;;;;5052265;28;20668;-62
2021/12/19 04:20:44;;;;;;;5.27;1.50;;;7.80;99.90;;;;;;5069867;28;20198;-61
2021/12/19 04:23:11;;;;;;;6.07;1.73;;;7.80;99.90;;;;;;5075505;28;20691;-61
2021/12/19 04:25:39;;;;;;;2.30;1.30;;;7.80;99.90;;;;;;5055128;28;20197;-61
2021/12/19 04:28:06;;;;;;;1.40;0.70;;;7.80;99.90;;;;;;5071142;28;20189;-61
2021/12/19 04:30:33;;;;;;;1.30;0.90;;;7.80;99.90;;;;;;5069230;28;20193;-62
2021/12/19 04:33:03;;;;;;;3.70;1.47;;;7.80;99.90;;;;;;5070998;28;20309;-62
2021/12/19 04:35:35;;;;;;;4.53;1.47;;;7.80;99.90;;;;;;5069677;28;20231;-61
2021/12/19 04:41:02;;;;;;;4.30;1.40;;;7.80;99.90;;;;;;5065909;28;20181;-61
2021/12/19 04:52:13;;;;;;;2.67;0.70;;;7.70;99.90;;;;;;5072193;28;20191;-61
2021/12/19 04:54:55;;;;;;;2.57;0.70;;;7.70;99.90;;;;;;5074246;28;20190;-62
2021/12/19 04:57:33;;;;;;;2.27;1.00;;;7.70;99.90;;;;;;5079887;28;20204;-62
2021/12/19 05:00:05;;;;;;;1.23;0.87;;;7.70;99.90;;;;;;5066392;28;20545;-61
2021/12/19 05:02:47;;;;;;;4.53;1.47;;;7.70;99.90;;;;;;5071662;28;20199;-62
2021/12/19 05:05:42;;;;;;;3.63;1.03;;;7.70;99.90;;;;;;5070628;28;20279;-61
2021/12/19 05:16:24;;;;;;;1.67;0.93;;;7.70;99.90;;;;;;5067367;28;20674;-61
2021/12/19 05:18:54;;;;;;;2.43;0.87;;;7.70;99.90;;;;;;5073628;28;20198;-61
2021/12/19 05:21:26;;;;;;;2.67;1.13;;;7.60;99.90;;;;;;5069310;28;20224;-61
2021/12/19 05:24:20;;;;;;;1.53;0.90;;;7.60;99.90;;;;;;5071315;28;20275;-62
2021/12/19 05:26:47;;;;;;;3.13;1.60;;;7.60;99.90;;;;;;5068379;28;20201;-62
2021/12/19 05:29:15;;;;;;;2.23;1.00;;;7.60;99.90;;;;;;5071633;28;20568;-61
2021/12/19 05:31:43;;;;;;;1.03;0.93;;;7.60;99.90;;;;;;5070028;28;20207;-62
2021/12/19 05:34:10;;;;;;;1.93;0.93;;;7.60;99.90;;;;;;5070932;28;20213;-62
2021/12/19 05:47:38;;;;;;;1.17;0.80;;;7.70;99.90;;;;;;5050685;28;20190;-61
2021/12/19 05:50:06;;;;;;;2.13;1.00;;;7.60;99.90;;;;;;5057952;28;20196;-62
2021/12/19 05:52:33;;;;;;;2.53;1.20;;;7.60;99.90;;;;;;5069905;28;20622;-62
2021/12/19 05:55:02;;;;;;;1.40;1.00;;;7.70;99.90;;;;;;5069713;28;20227;-62
2021/12/19 05:57:29;;;;;;;1.30;0.97;;;7.60;99.90;;;;;;5072508;28;20292;-62
2021/12/19 05:59:56;;;;;;;1.50;0.93;;;7.60;99.90;;;;;;5071981;28;20198;-63
2021/12/19 06:02:24;;;;;;;1.50;0.80;;;7.60;99.90;;;;;;5074665;28;20201;-62
2021/12/19 06:04:51;;;;;;;3.13;0.93;;;7.60;99.90;;;;;;5069849;28;20378;-61
2021/12/19 06:07:18;;;;;;;4.93;1.23;;;7.60;99.90;;;;;;5068520;28;20213;-62
2021/12/19 06:09:45;;;;;;;2.53;0.97;;;7.60;99.90;;;;;;5064997;28;20565;-62
2021/12/19 06:12:14;;;;;;;0.70;0.70;;;7.60;99.90;;;;;;5064498;28;20653;-61
2021/12/19 06:14:41;;;;;;;3.23;0.80;;;7.60;99.90;;;;;;5071409;28;20229;-62
2021/12/19 06:17:08;;;;;;;2.87;1.00;;;7.60;99.90;;;;;;5069610;28;20197;-62
2021/12/19 06:19:36;;;;;;;2.30;1.00;;;7.60;99.90;;;;;;5069057;28;20635;-62
2021/12/19 06:22:05;;;;;;;2.80;1.10;;;7.60;99.90;;;;;;5067713;28;20699;-61
2021/12/19 06:24:32;;;;;;;3.03;0.97;;;7.60;99.90;;;;;;5074315;28;20618;-61
2021/12/19 06:27:00;;;;;;;1.27;0.87;;;7.60;99.90;;;;;;5070639;28;20192;-61
2021/12/19 06:29:30;;;;;;;0.70;0.70;;;7.60;99.90;;;;;;5072889;28;20623;-61
2021/12/19 06:31:58;;;;;;;0.60;0.60;;;7.60;99.90;;;;;;5073134;28;20281;-61
2021/12/19 06:34:25;;;;;;;1.83;0.87;;;7.60;99.90;;;;;;5072296;28;20239;-61
2021/12/19 06:36:52;;;;;;;1.13;0.93;;;7.60;99.90;;;;;;5070235;28;20197;-61
2021/12/19 06:39:20;;;;;;;1.30;0.90;;;7.60;99.90;;;;;;5073706;28;20207;-61
2021/12/19 06:41:48;;;;;;;3.63;1.10;;;7.60;99.90;;;;;;5072968;28;20204;-61
2021/12/19 06:44:15;;;;;;;1.10;0.70;;;7.70;99.90;;;;;;5087069;28;20685;-61
2021/12/19 06:46:43;;;;;;;1.23;0.80;;;7.70;99.90;;;;;;5080873;28;20701;-62
2021/12/19 06:49:11;;;;;;;1.03;0.83;;;7.80;99.90;;;;;;5073974;28;20190;-62
2021/12/19 06:51:38;;;;;;;3.37;1.10;;;7.80;99.90;;;;;;5072290;28;20265;-62
2021/12/19 06:54:06;;;;;;;2.67;0.80;;;7.80;99.90;;;;;;5073886;28;20209;-62
2021/12/19 06:56:33;;;;;;;1.20;0.90;;;7.80;99.90;;;;;;5069517;28;20204;-62
2021/12/19 06:59:00;;;;;;;0.63;0.60;;;7.90;99.90;;;;;;5072678;28;20227;-61
2021/12/19 07:01:27;;;;;;;1.83;0.90;;;7.90;99.90;;;;;;5063388;28;20192;-61
2021/12/19 07:03:56;;;;;;;0.60;0.60;;;7.90;99.90;;;;;;5072647;28;20181;-61
2021/12/19 07:06:23;;;;;;;0.70;0.70;;;8.00;99.90;;;;;;5072152;28;20281;-61
2021/12/19 07:08:50;;;;;;;0.67;0.67;;;8.00;99.90;;;;;;5072444;28;20657;-61
2021/12/19 07:11:17;;;;;;;4.40;1.10;;;8.00;99.90;;;;;;5068109;28;20197;-61
2021/12/19 07:13:44;;;;;;;1.33;0.80;;;8.00;99.90;;;;;;5072101;28;20301;-61
2021/12/19 07:16:11;;;;;;;1.80;0.70;;;8.00;99.90;;;;;;5072777;28;20201;-61
2021/12/19 07:18:39;;;;;;;1.00;0.70;;;8.00;99.90;;;;;;5071769;28;20209;-62
2021/12/19 07:21:08;;;;;;;1.23;0.83;;;8.00;99.90;;;;;;5071604;28;20193;-61
2021/12/19 07:23:35;;;;;;;1.47;1.10;;;8.00;99.90;;;;;;5070464;28;20531;-62
2021/12/19 07:26:03;;;;;;;1.47;0.90;;;8.00;99.90;;;;;;5078692;28;20283;-62
2021/12/19 07:28:30;;;;;;;0.80;0.80;;;8.00;99.90;;;;;;5071495;28;20193;-62
2021/12/19 07:30:58;;;;;;;1.30;1.00;;;8.00;99.90;;;;;;5071699;28;20280;-61
2021/12/19 07:33:25;;;;;;;1.40;0.77;;;8.10;99.90;;;;;;5071101;28;20229;-62
2021/12/19 07:35:53;;;;;;;3.07;1.40;;;8.10;99.90;;;;;;5069783;28;20215;-62
2021/12/19 07:38:28;;;;;;;1.50;1.20;;;8.10;99.90;;;;;;5069740;28;20197;-62
2021/12/19 07:40:57;;;;;;;1.87;1.00;;;8.10;99.90;;;;;;5071647;28;20659;-62
2021/12/19 07:43:25;;;;;;;2.07;1.23;;;8.10;99.90;;;;;;5072064;28;20194;-61
2021/12/19 07:45:52;;;;;;;1.37;0.90;;;8.10;99.90;;;;;;5077719;28;20233;-61
2021/12/19 07:48:19;;;;;;;0.90;0.90;;;8.10;99.90;;;;;;5074691;28;20244;-61
2021/12/19 07:50:47;;;;;;;1.47;0.90;;;8.10;99.90;;;;;;5074035;28;20197;-61
2021/12/19 07:53:14;;;;;;;2.33;1.03;;;8.10;99.90;;;;;;5071853;28;20220;-61
2021/12/19 07:55:44;;;;;;;1.00;0.90;;;8.10;99.90;;;;;;5066487;28;20669;-62
2021/12/19 07:58:11;;;;;;;3.40;1.10;;;8.10;99.90;;;;;;5084890;28;20246;-62
2021/12/19 08:00:38;;;;;;;1.60;0.87;;;8.10;99.90;;;;;;5071473;28;20198;-62
2021/12/19 08:03:06;;;;;;;1.73;0.80;;;8.00;99.90;;;;;;5082179;28;20193;-62
2021/12/19 08:05:33;;;;;;;1.17;0.90;;;8.00;99.90;;;;;;5080406;28;20213;-61
2021/12/19 08:08:03;;;;;;;1.10;0.70;;;8.10;99.90;;;;;;5072311;28;20186;-61
2021/12/19 08:13:32;;;;;;;1.03;0.93;;;8.10;99.90;;;;;;5008199;28;20333;-62
2021/12/19 08:15:59;;;;;;;1.03;0.97;;;8.10;99.90;;;;;;5008180;28;20192;-62
2021/12/19 08:18:26;;;;;;;3.23;1.13;;;8.10;99.90;;;;;;5040670;28;20209;-62
2021/12/19 08:20:54;;;;;;;1.13;0.87;;;8.10;99.90;;;;;;5081345;28;20204;-62
2021/12/19 08:23:21;;;;;;;0.83;0.77;;;8.10;99.90;;;;;;5074351;28;20196;-61
2021/12/19 08:25:48;;;;;;;2.83;1.20;;;8.10;99.90;;;;;;5071718;28;20914;-62
2021/12/19 08:28:15;;;;;;;2.83;1.23;;;8.20;99.90;;;;;;5077254;28;20263;-62
2021/12/19 08:30:44;;;;;;;1.70;1.10;;;8.20;99.90;;;;;;5070433;28;20561;-61
2021/12/19 08:33:11;;;;;;;2.23;1.17;;;8.20;99.90;;;;;;5066551;28;20192;-62
2021/12/19 08:35:38;;;;;;;2.67;1.17;;;8.30;99.90;;;;;;5072127;28;20197;-62
2021/12/19 08:38:05;;;;;;;2.73;1.00;;;8.30;99.90;;;;;;5072481;28;20209;-62
2021/12/19 08:40:33;;;;;;;3.80;1.30;;;8.30;99.90;;;;;;5070133;28;20670;-62
2021/12/19 08:43:00;;;;;;;3.77;1.20;;;8.50;99.90;;;;;;5088374;28;20197;-62
2021/12/19 08:45:27;;;;;;;1.43;1.00;;;8.40;99.90;;;;;;5072550;28;20240;-62
2021/12/19 08:47:56;;;;;;;3.77;1.20;;;8.40;99.90;;;;;;5082397;28;20551;-62
2021/12/19 08:50:24;;;;;;;0.90;0.90;;;8.50;99.90;;;;;;5069463;28;20209;-62
2021/12/19 08:52:52;;;;;;;1.10;1.00;;;8.50;99.90;;;;;;5070188;28;20565;-62
2021/12/19 08:55:20;;;;;;;1.37;0.90;;;8.50;99.90;;;;;;5071611;28;20209;-62
2021/12/19 08:57:47;;;;;;;0.70;0.70;;;8.40;99.90;;;;;;5072117;28;20197;-62
2021/12/19 09:00:17;;;;;;;1.13;0.90;;;8.50;99.90;;;;;;5071426;28;20209;-62
2021/12/19 09:02:49;;;;;;;0.83;0.83;;;8.50;99.90;;;;;;5076801;28;20204;-61
2021/12/19 09:05:19;;;;;;;3.67;1.40;;;8.50;99.90;;;;;;5073217;28;20551;-62
2021/12/19 09:07:46;;;;;;;2.97;1.17;;;8.40;99.90;;;;;;5082466;28;20242;-62
2021/12/19 09:10:13;;;;;;;2.83;1.50;;;8.50;99.90;;;;;;5086180;28;20654;-62
2021/12/19 09:12:41;;;;;;;3.07;1.20;;;8.50;99.90;;;;;;5076972;28;20201;-62
2021/12/19 09:15:08;;;;;;;1.10;1.00;;;8.50;99.90;;;;;;5079251;28;20217;-62
2021/12/19 09:17:36;;;;;;;2.13;1.63;;;8.50;99.90;;;;;;5077510;28;20204;-63
2021/12/19 09:20:04;;;;;;;4.67;2.27;;;8.50;99.90;;;;;;5074024;28;20201;-62
2021/12/19 09:22:33;;;;;;;2.37;1.80;;;8.50;99.90;;;;;;5075187;28;20210;-62
2021/12/19 09:25:01;;;;;;;3.27;1.43;;;8.50;99.90;;;;;;5072945;28;20228;-62
2021/12/19 09:27:28;;;;;;;3.17;1.47;;;8.50;99.90;;;;;;5077770;28;20193;-62
2021/12/19 09:29:55;;;;;;;1.50;1.40;;;8.50;99.90;;;;;;5074677;28;20204;-62
2021/12/19 09:32:22;;;;;;;2.77;1.60;;;8.60;99.90;;;;;;5072787;28;20192;-62
2021/12/19 09:34:49;;;;;;;4.50;1.87;;;8.60;99.90;;;;;;5069317;28;20300;-62
2021/12/19 09:37:16;;;;;;;3.93;2.30;;;8.60;99.90;;;;;;5064262;28;20185;-63
2021/12/19 09:40:04;;;;;;;3.40;1.77;;;8.60;99.90;;;;;;5064562;28;20291;-63
2021/12/19 09:42:34;;;;;;;2.30;1.40;;;8.60;99.90;;;;;;5065758;28;20220;-63
2021/12/19 09:45:02;;;;;;;2.03;1.30;;;8.60;99.90;;;;;;5061933;28;20193;-63
2021/12/19 09:47:30;;;;;;;2.03;1.23;;;8.60;99.90;;;;;;5062278;28;20186;-63
2021/12/19 09:49:58;;;;;;;1.00;1.00;;;8.50;99.90;;;;;;5068809;28;20628;-62
2021/12/19 09:52:27;;;;;;;1.00;1.00;;;8.60;99.90;;;;;;5062114;28;20199;-63
2021/12/19 09:54:56;;;;;;;1.67;1.10;;;8.60;99.90;;;;;;5076076;28;20221;-62
2021/12/19 09:57:24;;;;;;;1.33;0.97;;;8.60;99.90;;;;;;5072289;28;20205;-62
2021/12/19 09:59:52;;;;;;;1.23;0.90;;;8.60;99.90;;;;;;5070277;28;20200;-62
2021/12/19 10:02:20;;;;;;;2.10;1.00;;;8.70;99.90;;;;;;5074966;28;20193;-62
2021/12/19 10:04:47;;;;;;;1.53;1.10;;;8.70;99.90;;;;;;5086533;28;20189;-62
2021/12/19 10:07:17;;;;;;;1.10;0.90;;;8.80;99.90;;;;;;5075661;28;20565;-62
2021/12/19 10:09:57;;;;;;;2.73;1.30;;;8.80;99.90;;;;;;5079645;28;20301;-62
2021/12/19 10:12:49;;;;;;;2.93;1.20;;;8.80;99.90;;;;;;5072591;28;20568;-62
2021/12/19 10:15:19;;;;;;;2.43;1.53;;;8.80;99.90;;;;;;5080538;28;20620;-62
2021/12/19 10:17:48;;;;;;;4.93;1.20;;;8.80;99.90;;;;;;5068518;28;20304;-62
2021/12/19 10:20:17;;;;;;;1.60;1.23;;;8.80;99.90;;;;;;5073215;28;20270;-62
2021/12/19 10:22:46;;;;;;;2.17;1.60;;;8.90;99.90;;;;;;5072577;28;20201;-62
2021/12/19 10:25:18;;;;;;;2.43;1.30;;;8.90;99.90;;;;;;5073147;28;20197;-62
2021/12/19 10:27:48;;;;;;;1.17;1.00;;;9.00;99.90;;;;;;5070126;28;20199;-62
2021/12/19 10:30:23;;;;;;;2.03;1.43;;;9.00;99.90;;;;;;5071461;28;20190;-62
2021/12/19 10:32:53;;;;;;;2.20;1.23;;;9.00;99.90;;;;;;5066335;28;20193;-62
2021/12/19 10:35:23;;;;;;;2.10;1.40;;;9.00;99.90;;;;;;5053737;28;20725;-62
2021/12/19 10:37:50;;;;;;;1.40;1.20;;;9.00;99.90;;;;;;5063441;28;20307;-62
2021/12/19 10:40:18;;;;;;;1.43;1.00;;;8.90;99.90;;;;;;5065438;28;20560;-62
2021/12/19 10:42:56;;;;;;;1.73;1.00;;;8.90;99.90;;;;;;5064535;28;20677;-62
2021/12/19 10:45:35;;;;;;;1.80;1.10;;;9.00;99.90;;;;;;5068930;28;20233;-62
2021/12/19 10:48:21;;;;;;;2.07;1.27;;;9.00;99.90;;;;;;5067688;28;20196;-62
2021/12/19 10:50:52;;;;;;;2.23;1.60;;;9.00;99.90;;;;;;5067500;28;20204;-62
2021/12/19 10:53:23;;;;;;;3.33;1.30;;;9.00;99.90;;;;;;5057900;28;20200;-62
2021/12/19 10:55:51;;;;;;;2.10;1.10;;;9.00;99.90;;;;;;5060542;28;20691;-62
2021/12/19 10:58:25;;;;;;;2.30;1.37;;;8.90;99.90;;;;;;5068355;28;20185;-62
2021/12/19 11:01:12;;;;;;;2.67;1.10;;;8.90;99.90;;;;;;5060726;28;20296;-62
2021/12/19 11:03:42;;;;;;;2.83;1.30;;;8.90;99.90;;;;;;5063624;28;20189;-62
2021/12/19 11:06:32;;;;;;;1.80;1.30;;;8.90;99.90;;;;;;5066124;28;20190;-64
2021/12/19 11:09:01;;;;;;;5.67;1.20;;;8.80;99.90;;;;;;5062021;28;20209;-62
2021/12/19 11:11:46;;;;;;;4.53;1.10;;;8.80;99.90;;;;;;5065268;28;20205;-62
2021/12/19 11:14:18;;;;;;;1.03;0.90;;;8.70;99.90;;;;;;5070190;28;20208;-62
2021/12/19 11:16:46;;;;;;;2.50;1.10;;;8.70;99.90;;;;;;5068934;28;20557;-62
2021/12/19 11:19:13;;;;;;;1.27;0.80;;;8.70;99.90;;;;;;5066023;28;20216;-62
2021/12/19 11:21:42;;;;;;;1.93;1.07;;;8.70;99.90;;;;;;5068985;28;20224;-62
2021/12/19 11:24:10;;;;;;;2.70;1.27;;;8.70;99.90;;;;;;5069758;28;20193;-62
2021/12/19 11:26:40;;;;;;;1.17;1.07;;;8.70;99.90;;;;;;5066035;28;20196;-62
2021/12/19 11:29:09;;;;;;;1.50;1.00;;;8.70;99.90;;;;;;5064986;28;20189;-62
2021/12/19 11:31:39;;;;;;;0.80;0.70;;;8.70;99.90;;;;;;5060702;28;20189;-62
2021/12/19 11:34:30;;;;;;;1.13;0.80;;;8.70;99.90;;;;;;5062397;28;20199;-62
2021/12/19 11:37:03;;;;;;;0.70;0.70;;;8.80;99.90;;;;;;5061292;28;20250;-62
2021/12/19 11:39:33;;;;;;;1.17;0.70;;;8.80;99.90;;;;;;5066489;28;20237;-62
2021/12/19 11:42:10;;;;;;;0.90;0.80;;;8.80;99.90;;;;;;5065421;28;20197;-62
2021/12/19 11:44:50;;;;;;;1.83;0.90;;;8.80;98.70;;;;;;5061121;28;20211;-62
2021/12/19 11:47:47;;;;;;;1.90;0.90;;;8.80;98.70;;;;;;5065980;28;20238;-62
2021/12/19 11:50:21;;;;;;;1.50;0.67;;;8.80;98.60;;;;;;5070879;28;20328;-62
2021/12/19 11:52:50;;;;;;;1.23;1.00;;;8.90;97.90;;;;;;5067362;28;20344;-62
2021/12/19 11:55:31;;;;;;;1.13;0.77;;;8.90;97.80;;;;;;5072427;28;20552;-62
2021/12/19 11:58:29;;;;;;;0.80;0.80;;;8.90;97.70;;;;;;5085876;28;20674;-62
2021/12/19 12:01:03;;;;;;;1.47;0.93;;;8.80;97.30;;;;;;5079089;28;20232;-62
2021/12/19 12:03:44;;;;;;;0.70;0.60;;;8.80;96.60;;;;;;5085579;28;20197;-62
2021/12/19 12:06:42;;;;;;;1.93;1.10;;;8.70;96.90;;;;;;5071524;28;20197;-62
2021/12/19 12:09:23;;;;;;;1.53;1.00;;;8.70;96.30;;;;;;5070519;28;20226;-62
2021/12/19 12:12:35;;;;;;;2.40;1.10;;;8.60;95.90;;;;;;5062026;28;20683;-62
2021/12/19 12:15:08;;;;;;;3.93;1.50;;;8.60;95.80;;;;;;5070794;28;20194;-62
2021/12/19 12:17:46;;;;;;;1.90;1.33;;;8.60;95.70;;;;;;5070419;28;20565;-63
2021/12/19 12:20:21;;;;;;;1.30;1.20;;;8.60;95.80;;;;;;5067978;28;20288;-62
2021/12/19 12:22:55;;;;;;;1.70;1.07;;;8.60;96.10;;;;;;5078632;28;20279;-62
2021/12/19 12:25:34;;;;;;;1.43;1.20;;;8.50;95.80;;;;;;5069135;28;20197;-62
2021/12/19 12:28:06;;;;;;;2.10;1.50;;;8.50;95.70;;;;;;5066032;28;20225;-62
2021/12/19 12:30:36;;;;;;;2.30;1.10;;;8.50;95.70;;;;;;5068555;28;20276;-62
2021/12/19 12:33:06;;;;;;;1.73;1.10;;;8.40;95.80;;;;;;5068176;28;20201;-62
2021/12/19 12:35:38;;;;;;;3.03;1.13;;;8.30;95.80;;;;;;5068495;28;20704;-62
2021/12/19 12:38:06;;;;;;;1.20;0.90;;;8.30;96.00;;;;;;5066884;28;20182;-62
2021/12/19 12:40:46;;;;;;;0.80;0.80;;;8.20;96.20;;;;;;5063969;28;20205;-62
2021/12/19 12:43:15;;;;;;;3.70;0.97;;;8.20;96.50;;;;;;5062115;28;20190;-62
2021/12/19 12:46:01;;;;;;;3.70;0.90;;;8.20;96.20;;;;;;5062741;28;20252;-62
2021/12/19 12:48:51;;;;;;;3.30;1.20;;;8.20;96.10;;;;;;5063183;28;20822;-62
2021/12/19 12:51:26;;;;;;;1.87;0.80;;;8.20;95.60;;;;;;5054297;28;20204;-62
2021/12/19 12:53:56;;;;;;;3.13;1.13;;;8.10;95.30;;;;;;5065992;28;20280;-62
2021/12/19 12:56:27;;;;;;;1.90;0.90;;;8.10;95.50;;;;;;5066201;28;20209;-62
2021/12/19 12:58:56;;;;;;;1.83;0.93;;;8.10;95.70;;;;;;5070479;28;20193;-62
2021/12/19 13:01:36;;;;;;;2.03;1.00;;;8.00;95.50;;;;;;5081431;28;20659;-62
2021/12/19 13:04:16;;;;;;;3.03;1.10;;;8.00;95.30;;;;;;5078427;28;20238;-62
2021/12/19 13:06:59;;;;;;;4.43;1.27;;;8.00;95.30;;;;;;5059196;28;20201;-62
2021/12/19 13:09:29;;;;;;;1.80;0.90;;;7.90;95.30;;;;;;5064910;28;20207;-62
2021/12/19 13:12:11;;;;;;;2.53;1.10;;;7.90;95.30;;;;;;5064459;28;20205;-62
2021/12/19 13:14:40;;;;;;;2.50;0.93;;;7.80;95.20;;;;;;5066990;28;20189;-62
2021/12/19 13:17:09;;;;;;;1.70;1.00;;;7.80;95.20;;;;;;5070210;28;20199;-61
2021/12/19 13:19:49;;;;;;;2.57;1.00;;;7.80;95.70;;;;;;5064996;28;20197;-62
2021/12/19 13:22:21;;;;;;;2.87;1.00;;;7.80;95.50;;;;;;5065569;28;20212;-62
2021/12/19 13:24:49;;;;;;;2.20;1.00;;;7.80;95.60;;;;;;5059300;28;20194;-62
2021/12/19 13:27:19;;;;;;;1.53;0.90;;;7.70;95.40;;;;;;5063883;28;20201;-62
2021/12/19 13:30:08;;;;;;;2.67;0.77;;;7.70;95.60;;;;;;5062145;28;20715;-62
2021/12/19 13:32:37;;;;;;;0.87;0.83;;;7.70;95.50;;;;;;5061112;28;20190;-62
2021/12/19 13:35:07;;;;;;;1.90;0.90;;;7.70;96.00;;;;;;5064076;28;20209;-61
2021/12/19 13:37:46;;;;;;;2.67;1.10;;;7.70;95.90;;;;;;5060542;28;20728;-61
2021/12/19 13:40:15;;;;;;;1.10;1.00;;;7.70;95.80;;;;;;5059009;28;20197;-61
2021/12/19 13:42:48;;;;;;;1.23;0.70;;;7.70;95.60;;;;;;5079390;28;20189;-61
2021/12/19 13:45:52;;;;;;;2.07;1.00;;;7.70;95.70;;;;;;5080388;28;20225;-62
2021/12/19 13:48:27;;;;;;;3.07;1.40;;;7.60;95.70;;;;;;5073392;28;20224;-61
2021/12/19 13:51:02;;;;;;;1.90;1.00;;;7.60;95.40;;;;;;5062921;28;20195;-62
2021/12/19 13:53:33;;;;;;;2.20;1.60;;;7.70;95.60;;;;;;5078317;28;20201;-62
2021/12/19 13:56:03;;;;;;;4.23;2.37;;;7.80;95.30;;;;;;5069060;28;20239;-62
2021/12/19 13:58:32;;;;;;;4.60;2.40;;;7.80;94.90;;;;;;5076081;28;20193;-60
2021/12/19 14:01:09;;;;;;;6.70;2.53;;;7.90;94.90;;;;;;5082787;28;20207;-62
2021/12/19 14:03:38;;;;;;;6.47;3.27;;;7.80;94.90;;;;;;5075365;28;20718;-60
2021/12/19 14:06:06;;;;;;;7.07;3.40;;;7.90;94.80;;;;;;5063445;28;20201;-60
2021/12/19 14:08:36;;;;;;;6.50;3.53;;;7.80;94.60;;;;;;5063633;28;20298;-60
2021/12/19 14:11:12;;;;;;;3.47;1.83;;;7.70;94.70;;;;;;5068002;28;20219;-61